Time;durP1;ratioP1;P1;durP2;ratioP2;P2;SDS_P1;SDS_P2;PMS_P1;PMS_P2;Temp;Humidity;BMP_temperature;BMP_pressure;BME280_temperature;BME280_humidity;BME280_pressure;Samples;Min_cycle;Max_cycle;Signal;HPM_P1;HPM_P2
2024/02/19 00:06:53;;;;;;;57.50;29.20;;;;;;;-0.28;81.80;99335.57;435419;1251;99240;-39
2024/02/19 00:17:00;;;;;;;53.70;27.60;;;;;;;-0.31;82.22;99319.85;435363;1250;107871;-39
2024/02/19 00:27:05;;;;;;;44.90;24.00;;;;;;;-0.28;82.71;99300.13;435205;1251;99236;-41
2024/02/19 00:37:12;;;;;;;42.30;22.70;;;;;;;-0.27;83.07;99285.74;435433;1251;110578;-39
2024/02/19 00:47:19;;;;;;;61.60;28.70;;;;;;;-0.31;83.06;99268.73;435335;1254;107575;-40
2024/02/19 00:57:27;;;;;;;39.50;22.70;;;;;;;-0.38;83.45;99254.13;435546;1250;97987;-40
2024/02/19 01:07:35;;;;;;;48.00;25.20;;;;;;;-0.31;83.53;99246.19;435338;1254;108697;-40
2024/02/19 01:17:43;;;;;;;43.00;25.00;;;;;;;-0.27;83.53;99216.95;436148;1250;98130;-39
2024/02/19 01:27:51;;;;;;;64.70;32.90;;;;;;;-0.30;83.99;99202.02;435428;1250;111389;-40
2024/02/19 01:37:58;;;;;;;46.10;25.40;;;;;;;-0.28;84.19;99184.23;435340;1251;109283;-40
2024/02/19 01:48:04;;;;;;;51.30;25.40;;;;;;;-0.19;84.65;99167.29;435247;1251;99250;-40
2024/02/19 01:58:10;;;;;;;62.10;29.60;;;;;;;-0.12;84.94;99148.73;435404;1251;110404;-41
2024/02/19 02:08:17;;;;;;;57.10;30.10;;;;;;;-0.14;84.94;99129.73;435279;1254;107724;-40
2024/02/19 02:18:24;;;;;;;50.70;25.70;;;;;;;-0.03;85.25;99110.59;436135;1247;99293;-40
2024/02/19 02:28:32;;;;;;;45.00;26.50;;;;;;;0.09;85.28;99099.38;435263;1253;107848;-40
2024/02/19 02:38:40;;;;;;;60.20;33.80;;;;;;;0.14;85.28;99081.73;435511;1256;99236;-40
2024/02/19 02:48:47;;;;;;;47.50;27.00;;;;;;;0.11;85.30;99073.00;435345;1256;113089;-39
2024/02/19 02:58:54;;;;;;;44.70;25.80;;;;;;;0.21;85.23;99061.73;435351;1251;109281;-42
2024/02/19 03:09:01;;;;;;;50.70;26.80;;;;;;;0.24;85.18;99050.75;435156;1256;99224;-40
2024/02/19 03:19:09;;;;;;;67.80;35.90;;;;;;;0.21;85.41;99040.09;435316;1256;108368;-40
2024/02/19 03:29:17;;;;;;;56.60;28.90;;;;;;;0.11;85.27;99019.63;435626;1256;99228;-41
2024/02/19 03:39:25;;;;;;;45.60;26.20;;;;;;;0.15;85.26;99005.05;435280;1256;110178;-40
2024/02/19 03:49:32;;;;;;;52.70;27.40;;;;;;;0.19;85.47;98996.23;435239;1253;108465;-40
2024/02/19 03:59:39;;;;;;;62.40;33.20;;;;;;;0.23;85.69;98982.31;435408;1254;99247;-40
2024/02/19 04:09:46;;;;;;;51.40;28.20;;;;;;;0.29;85.84;98966.45;435010;1256;411658;-39
2024/02/19 04:30:04;;;;;;;43.20;25.00;;;;;;;0.58;85.83;98952.45;435347;1253;99116;-41
2024/02/19 04:50:19;;;;;;;55.40;27.60;;;;;;;0.72;85.95;98923.73;435318;1256;98011;-39
2024/02/19 05:10:33;;;;;;;51.30;26.30;;;;;;;0.94;85.88;98892.78;435247;1255;107586;-38
2024/02/19 05:20:40;;;;;;;69.30;35.60;;;;;;;0.99;86.03;98883.36;435327;1256;98017;-39
2024/02/19 05:30:47;;;;;;;56.40;32.10;;;;;;;1.08;85.97;98877.39;435070;1254;113013;-39
2024/02/19 05:40:55;;;;;;;60.40;31.00;;;;;;;1.28;85.92;98864.45;435205;1256;108261;-41
2024/02/19 06:01:09;;;;;;;66.10;34.10;;;;;;;1.71;86.13;98842.05;435139;1256;107747;-39
2024/02/19 06:11:17;;;;;;;38.20;20.50;;;;;;;1.97;86.15;98826.17;435225;1256;99807;-40
2024/02/19 06:21:24;;;;;;;29.90;19.60;;;;;;;2.29;86.16;98820.18;435363;1251;111723;-39
2024/02/19 06:31:32;;;;;;;44.60;24.30;;;;;;;2.55;86.30;98814.77;435422;1251;107315;-41
2024/02/19 06:41:39;;;;;;;46.60;26.90;;;;;;;2.74;86.64;98807.50;435305;1256;99228;-41
2024/02/19 06:51:46;;;;;;;41.00;22.60;;;;;;;2.93;86.68;98800.64;435276;1256;110832;-39
2024/02/19 07:01:53;;;;;;;32.60;20.50;;;;;;;3.16;86.79;98793.67;435329;1257;107889;-38
2024/02/19 07:12:01;;;;;;;35.40;20.60;;;;;;;3.39;87.47;98778.37;435441;1256;99248;-39
2024/02/19 07:22:08;;;;;;;34.10;20.40;;;;;;;3.70;87.92;98768.29;435317;1254;108860;-39
2024/02/19 07:32:15;;;;;;;39.40;24.50;;;;;;;3.87;88.14;98761.94;435353;1254;99327;-40
2024/02/19 07:42:21;;;;;;;32.90;19.60;;;;;;;4.09;88.43;98759.89;435412;1256;114009;-39
2024/02/19 07:52:28;;;;;;;25.80;16.00;;;;;;;4.39;88.55;98756.62;435300;1256;107475;-40
2024/02/19 08:02:36;;;;;;;28.10;16.20;;;;;;;4.63;88.90;98748.74;435411;1251;99221;-40
2024/02/19 08:12:43;;;;;;;38.90;22.90;;;;;;;4.75;89.30;98747.00;435263;1254;107977;-38
2024/02/19 08:32:56;;;;;;;20.50;15.10;;;;;;;5.18;89.83;98718.06;435207;1256;112973;-38
2024/02/19 08:43:03;;;;;;;27.20;18.00;;;;;;;5.37;89.58;98725.02;435392;1251;109142;-41
2024/02/19 08:53:11;;;;;;;29.00;17.00;;;;;;;5.45;89.72;98714.90;435171;1256;99244;-40
2024/02/19 09:03:18;;;;;;;27.80;16.70;;;;;;;5.55;89.95;98703.36;435382;1264;108411;-39
2024/02/19 09:13:26;;;;;;;22.40;16.10;;;;;;;5.72;89.91;98698.02;435330;1259;99326;-40
2024/02/19 09:23:33;;;;;;;23.40;15.30;;;;;;;5.87;90.16;98692.02;435258;1254;112150;-40
2024/02/19 09:33:41;;;;;;;21.10;13.60;;;;;;;6.00;90.16;98678.44;435305;1252;108428;-40
2024/02/19 09:43:49;;;;;;;27.10;15.50;;;;;;;6.28;90.28;98679.33;435395;1254;99311;-40
2024/02/19 09:53:57;;;;;;;25.20;16.80;;;;;;;6.50;90.22;98679.90;435412;1254;107723;-40
2024/02/19 10:14:15;;;;;;;20.90;12.70;;;;;;;6.72;89.71;98669.95;435215;1264;112873;-39
2024/02/19 10:24:23;;;;;;;35.30;18.00;;;;;;;6.74;89.68;98665.79;435298;1254;108114;-40
2024/02/19 10:34:30;;;;;;;26.50;16.80;;;;;;;6.70;89.73;98660.25;435358;1251;98677;-39
2024/02/19 10:44:38;;;;;;;23.60;14.40;;;;;;;6.81;89.74;98651.42;435328;1254;106598;-40
2024/02/19 10:54:47;;;;;;;20.50;14.50;;;;;;;6.84;89.63;98641.02;435346;1251;99327;-41
2024/02/19 11:05:12;;;;;;;19.80;13.90;;;;;;;6.87;89.76;98634.23;435322;1251;111983;-40
2024/02/19 11:15:21;;;;;;;18.10;14.60;;;;;;;6.87;89.93;98627.36;435235;1251;109275;-41
2024/02/19 11:25:28;;;;;;;20.40;14.00;;;;;;;6.81;90.03;98622.07;435231;1251;98011;-39
2024/02/19 11:35:34;;;;;;;15.50;12.10;;;;;;;6.75;90.22;98612.58;435330;1251;108692;-39
2024/02/19 11:45:41;;;;;;;20.90;14.60;;;;;;;6.85;90.58;98606.61;435361;1254;99225;-40
2024/02/19 11:55:58;;;;;;;20.50;13.80;;;;;;;6.98;90.93;98596.91;435350;1254;111412;-40
2024/02/19 12:06:04;;;;;;;18.70;12.10;;;;;;;7.08;90.60;98588.79;435236;1251;108589;-40
2024/02/19 12:16:12;;;;;;;23.10;17.00;;;;;;;7.15;90.82;98596.66;435277;1254;99221;-39
2024/02/19 12:26:19;;;;;;;23.10;15.70;;;;;;;7.13;90.72;98594.73;435310;1254;108619;-39
2024/02/19 12:36:26;;;;;;;20.80;11.60;;;;;;;7.13;91.21;98599.88;435291;1251;98464;-42
2024/02/19 12:56:42;;;;;;;7.00;5.70;;;;;;;7.41;91.75;98596.06;435297;1250;107603;-38
2024/02/19 13:06:49;;;;;;;12.10;5.90;;;;;;;7.37;91.98;98602.68;435251;1267;99272;-39
2024/02/19 13:27:19;;;;;;;4.50;3.90;;;;;;;7.18;92.04;98610.36;435269;1255;99253;-39
2024/02/19 13:37:27;;;;;;;3.40;3.10;;;;;;;7.06;91.90;98612.38;435286;1254;111174;-40
2024/02/19 13:47:35;;;;;;;15.60;10.70;;;;;;;6.96;91.94;98618.92;435347;1251;107934;-40
2024/02/19 13:57:45;;;;;;;13.70;10.50;;;;;;;6.90;92.06;98624.53;435367;1250;98329;-39
2024/02/19 14:07:52;;;;;;;7.80;4.60;;;;;;;6.89;91.80;98627.23;435294;1251;107706;-39
2024/02/19 14:17:58;;;;;;;3.90;3.40;;;;;;;6.86;91.64;98634.15;435209;1254;99234;-38
2024/02/19 14:38:13;;;;;;;8.20;7.20;;;;;;;6.94;91.75;98643.60;435334;1254;109276;-41
2024/02/19 14:48:20;;;;;;;6.00;4.40;;;;;;;6.98;91.76;98643.02;435284;1254;99278;-41
2024/02/19 15:08:34;;;;;;;5.10;3.10;;;;;;;6.89;91.51;98665.33;435180;1251;99262;-40
2024/02/19 15:18:40;;;;;;;5.90;3.50;;;;;;;6.73;91.57;98681.03;435238;1264;112139;-40
2024/02/19 15:28:48;;;;;;;9.10;4.50;;;;;;;6.57;91.77;98689.36;435439;1250;108544;-39
2024/02/19 15:38:55;;;;;;;3.80;2.50;;;;;;;6.44;91.95;98687.70;435291;1254;99257;-42
2024/02/19 15:49:03;;;;;;;4.00;2.90;;;;;;;6.29;92.44;98696.77;435127;1250;107173;-38
2024/02/19 15:59:11;;;;;;;4.60;3.60;;;;;;;6.08;92.91;98710.27;435419;1254;99217;-40
2024/02/19 16:09:18;;;;;;;3.50;2.60;;;;;;;5.95;93.24;98707.98;435310;1254;764977;-39
2024/02/19 16:19:26;;;;;;;5.60;4.40;;;;;;;5.86;93.49;98718.33;435359;1254;109120;-39
2024/02/19 16:29:34;;;;;;;8.20;5.40;;;;;;;5.82;93.40;98729.87;435247;1254;99317;-40
2024/02/19 16:39:44;;;;;;;38.80;18.80;;;;;;;5.80;93.49;98736.11;435317;1254;108325;-40
2024/02/19 16:49:52;;;;;;;11.50;7.70;;;;;;;5.77;94.05;98743.65;435270;1254;98727;-40
2024/02/19 16:59:59;;;;;;;12.70;8.40;;;;;;;5.74;94.24;98753.81;435373;1263;110924;-39
2024/02/19 17:10:07;;;;;;;10.00;7.80;;;;;;;5.70;94.41;98760.47;435160;1254;107375;-41
2024/02/19 17:30:19;;;;;;;4.50;3.50;;;;;;;5.66;95.17;98774.11;435265;1254;108078;-39
2024/02/19 17:40:27;;;;;;;4.60;2.80;;;;;;;5.62;95.11;98782.56;435248;1254;97992;-40
2024/02/19 17:50:35;;;;;;;4.50;3.30;;;;;;;5.59;95.24;98791.27;435294;1255;111787;-40
2024/02/19 18:00:46;;;;;;;3.90;2.90;;;;;;;5.55;95.00;98797.51;435250;1255;106991;-39
2024/02/19 18:11:16;;;;;;;5.00;2.50;;;;;;;5.50;94.99;98803.62;435304;1251;99225;-40
2024/02/19 18:21:24;;;;;;;5.10;2.40;;;;;;;5.44;94.77;98820.20;435233;1250;107661;-39
2024/02/19 18:31:31;;;;;;;4.20;3.30;;;;;;;5.38;94.85;98832.69;435210;1254;99263;-39
2024/02/19 18:41:38;;;;;;;5.50;3.40;;;;;;;5.31;95.25;98832.21;435219;1266;111930;-39
2024/02/19 19:01:55;;;;;;;21.50;9.40;;;;;;;5.22;95.62;98834.61;435325;1271;99228;-40
2024/02/19 19:12:04;;;;;;;4.40;3.00;;;;;;;5.21;95.82;98838.36;435348;1255;107924;-39
2024/02/19 19:22:14;;;;;;;7.30;4.10;;;;;;;5.21;95.71;98838.72;435162;1250;99262;-39
2024/02/19 19:42:29;;;;;;;5.70;3.50;;;;;;;5.17;95.71;98842.82;435447;1264;107748;-40
2024/02/19 19:52:37;;;;;;;3.80;2.50;;;;;;;5.22;95.85;98849.34;435176;1254;97985;-39
2024/02/19 20:02:44;;;;;;;3.60;1.50;;;;;;;5.24;95.30;98852.73;435278;1255;106986;-39
2024/02/19 20:12:53;;;;;;;2.40;1.50;;;;;;;5.21;94.84;98860.94;435221;1250;99244;-39
2024/02/19 20:23:00;;;;;;;4.50;2.70;;;;;;;5.20;94.64;98875.55;435426;1254;110705;-39
2024/02/19 20:33:08;;;;;;;5.70;3.20;;;;;;;5.19;94.69;98890.27;435393;1254;108709;-40
2024/02/19 20:43:15;;;;;;;6.20;4.30;;;;;;;5.19;94.65;98887.73;435424;1250;97973;-40
2024/02/19 20:53:23;;;;;;;4.50;3.10;;;;;;;5.27;94.50;98892.85;435464;1254;106691;-39
2024/02/19 21:03:31;;;;;;;4.40;3.70;;;;;;;5.26;94.69;98905.80;435259;1254;99266;-40
2024/02/19 21:23:59;;;;;;;12.10;6.60;;;;;;;5.29;94.53;98917.79;436168;1255;108289;-40
2024/02/19 21:34:06;;;;;;;9.60;4.80;;;;;;;5.30;94.60;98918.56;435591;1250;98817;-40
2024/02/19 21:44:20;;;;;;;13.90;5.40;;;;;;;5.41;94.44;98914.92;435878;1256;108024;-39
2024/02/19 21:54:27;;;;;;;4.10;3.10;;;;;;;5.43;94.36;98923.15;435240;1256;99256;-40
2024/02/19 22:04:37;;;;;;;15.20;7.40;;;;;;;5.42;94.54;98917.92;435833;1255;111822;-41
2024/02/19 22:14:46;;;;;;;6.40;3.50;;;;;;;5.44;94.56;98917.44;435463;1251;106685;-41
2024/02/19 22:24:53;;;;;;;6.50;4.30;;;;;;;5.42;94.75;98919.10;435449;1251;99453;-41
2024/02/19 22:35:00;;;;;;;6.70;6.00;;;;;;;5.40;94.70;98914.68;435343;1251;108679;-41
2024/02/19 22:45:09;;;;;;;21.30;10.70;;;;;;;5.43;94.70;98919.67;435280;1250;99210;-40
2024/02/19 22:55:16;;;;;;;31.40;16.90;;;;;;;5.48;94.76;98923.04;435712;1256;113811;-40
2024/02/19 23:05:23;;;;;;;7.80;4.90;;;;;;;5.51;94.84;98916.25;435325;1250;107966;-40
2024/02/19 23:15:31;;;;;;;4.70;3.00;;;;;;;5.47;94.67;98916.17;435544;1251;99270;-41
2024/02/19 23:25:38;;;;;;;2.40;1.60;;;;;;;5.45;94.51;98913.14;435224;1256;107337;-39
2024/02/19 23:35:47;;;;;;;3.30;2.30;;;;;;;5.51;94.46;98916.01;435468;1250;98011;-40
2024/02/19 23:45:54;;;;;;;6.70;4.20;;;;;;;5.54;94.35;98914.30;435361;1255;111567;-40
2024/02/19 23:56:02;;;;;;;8.40;4.60;;;;;;;5.47;94.37;98906.25;435268;1256;106292;-40
